sensor_id;sensor_type;location;lat;lon;timestamp;P1;durP1;ratioP1;P2;durP2;ratioP2
30147;SDS011;16960;49.404;8.248;2022-11-22T00:02:11;2.20;;;2.00;;
30147;SDS011;16960;49.404;8.248;2022-11-22T00:04:39;1.83;;;1.73;;
30147;SDS011;16960;49.404;8.248;2022-11-22T00:07:06;1.93;;;1.73;;
30147;SDS011;16960;49.404;8.248;2022-11-22T00:09:33;2.13;;;1.60;;
30147;SDS011;16960;49.404;8.248;2022-11-22T00:12:00;2.17;;;1.97;;
30147;SDS011;16960;49.404;8.248;2022-11-22T00:14:27;2.00;;;1.83;;
30147;SDS011;16960;49.404;8.248;2022-11-22T00:16:54;1.97;;;1.63;;
30147;SDS011;16960;49.404;8.248;2022-11-22T00:19:21;2.13;;;1.83;;
30147;SDS011;16960;49.404;8.248;2022-11-22T00:21:49;2.53;;;2.30;;
30147;SDS011;16960;49.404;8.248;2022-11-22T00:24:16;2.73;;;2.43;;
30147;SDS011;16960;49.404;8.248;2022-11-22T00:26:43;5.00;;;2.10;;
30147;SDS011;16960;49.404;8.248;2022-11-22T00:29:10;2.33;;;2.13;;
30147;SDS011;16960;49.404;8.248;2022-11-22T00:31:38;2.57;;;1.90;;
30147;SDS011;16960;49.404;8.248;2022-11-22T00:34:05;2.20;;;2.00;;
30147;SDS011;16960;49.404;8.248;2022-11-22T00:36:32;1.90;;;1.70;;
30147;SDS011;16960;49.404;8.248;2022-11-22T00:39:00;2.00;;;1.80;;
30147;SDS011;16960;49.404;8.248;2022-11-22T00:41:27;2.13;;;1.70;;
30147;SDS011;16960;49.404;8.248;2022-11-22T00:43:54;2.27;;;2.03;;
30147;SDS011;16960;49.404;8.248;2022-11-22T00:46:21;2.27;;;2.10;;
30147;SDS011;16960;49.404;8.248;2022-11-22T00:48:48;2.60;;;2.30;;
30147;SDS011;16960;49.404;8.248;2022-11-22T00:51:15;2.83;;;2.10;;
30147;SDS011;16960;49.404;8.248;2022-11-22T00:53:42;2.20;;;2.00;;
30147;SDS011;16960;49.404;8.248;2022-11-22T00:56:10;2.20;;;2.00;;
30147;SDS011;16960;49.404;8.248;2022-11-22T00:58:37;2.23;;;2.03;;
30147;SDS011;16960;49.404;8.248;2022-11-22T01:01:04;2.00;;;1.90;;
30147;SDS011;16960;49.404;8.248;2022-11-22T01:03:31;1.83;;;1.73;;
30147;SDS011;16960;49.404;8.248;2022-11-22T01:05:58;3.00;;;2.03;;
30147;SDS011;16960;49.404;8.248;2022-11-22T01:08:25;3.07;;;2.10;;
30147;SDS011;16960;49.404;8.248;2022-11-22T01:10:55;1.90;;;1.80;;
30147;SDS011;16960;49.404;8.248;2022-11-22T01:13:24;2.63;;;2.43;;
30147;SDS011;16960;49.404;8.248;2022-11-22T01:15:51;2.37;;;2.17;;
30147;SDS011;16960;49.404;8.248;2022-11-22T01:18:18;2.17;;;1.97;;
30147;SDS011;16960;49.404;8.248;2022-11-22T01:20:45;3.03;;;2.20;;
30147;SDS011;16960;49.404;8.248;2022-11-22T01:23:12;2.20;;;2.00;;
30147;SDS011;16960;49.404;8.248;2022-11-22T01:25:41;2.27;;;1.93;;
30147;SDS011;16960;49.404;8.248;2022-11-22T01:28:09;2.43;;;1.70;;
30147;SDS011;16960;49.404;8.248;2022-11-22T01:30:37;1.87;;;1.77;;
30147;SDS011;16960;49.404;8.248;2022-11-22T01:33:06;2.40;;;1.90;;
30147;SDS011;16960;49.404;8.248;2022-11-22T01:35:33;2.73;;;2.03;;
30147;SDS011;16960;49.404;8.248;2022-11-22T01:38:00;2.23;;;1.50;;
30147;SDS011;16960;49.404;8.248;2022-11-22T01:40:27;2.40;;;1.80;;
30147;SDS011;16960;49.404;8.248;2022-11-22T01:42:55;2.27;;;1.93;;
30147;SDS011;16960;49.404;8.248;2022-11-22T01:48:13;2.53;;;1.60;;
30147;SDS011;16960;49.404;8.248;2022-11-22T01:50:57;3.23;;;1.90;;
30147;SDS011;16960;49.404;8.248;2022-11-22T01:53:29;1.77;;;1.67;;
30147;SDS011;16960;49.404;8.248;2022-11-22T01:55:59;2.43;;;2.10;;
30147;SDS011;16960;49.404;8.248;2022-11-22T01:58:28;1.90;;;1.80;;
30147;SDS011;16960;49.404;8.248;2022-11-22T02:00:59;1.73;;;1.60;;
30147;SDS011;16960;49.404;8.248;2022-11-22T02:03:27;1.60;;;1.50;;
30147;SDS011;16960;49.404;8.248;2022-11-22T02:05:56;2.20;;;1.90;;
30147;SDS011;16960;49.404;8.248;2022-11-22T02:08:25;2.03;;;1.90;;
30147;SDS011;16960;49.404;8.248;2022-11-22T02:10:56;2.10;;;1.60;;
30147;SDS011;16960;49.404;8.248;2022-11-22T02:13:26;2.17;;;1.60;;
30147;SDS011;16960;49.404;8.248;2022-11-22T02:15:54;3.43;;;1.90;;
30147;SDS011;16960;49.404;8.248;2022-11-22T02:18:22;1.73;;;1.50;;
30147;SDS011;16960;49.404;8.248;2022-11-22T02:20:49;1.87;;;1.40;;
30147;SDS011;16960;49.404;8.248;2022-11-22T02:23:19;1.93;;;1.73;;
30147;SDS011;16960;49.404;8.248;2022-11-22T02:25:53;1.70;;;1.60;;
30147;SDS011;16960;49.404;8.248;2022-11-22T02:28:21;1.93;;;1.83;;
30147;SDS011;16960;49.404;8.248;2022-11-22T02:30:48;1.97;;;1.67;;
30147;SDS011;16960;49.404;8.248;2022-11-22T02:33:15;1.77;;;1.67;;
30147;SDS011;16960;49.404;8.248;2022-11-22T02:35:42;1.97;;;1.67;;
30147;SDS011;16960;49.404;8.248;2022-11-22T02:38:11;2.10;;;1.70;;
30147;SDS011;16960;49.404;8.248;2022-11-22T02:40:41;1.73;;;1.63;;
30147;SDS011;16960;49.404;8.248;2022-11-22T02:43:14;2.07;;;1.67;;
30147;SDS011;16960;49.404;8.248;2022-11-22T02:45:43;2.00;;;1.80;;
30147;SDS011;16960;49.404;8.248;2022-11-22T02:48:11;3.63;;;1.90;;
30147;SDS011;16960;49.404;8.248;2022-11-22T02:50:39;1.83;;;1.60;;
30147;SDS011;16960;49.404;8.248;2022-11-22T02:53:06;1.70;;;1.60;;
30147;SDS011;16960;49.404;8.248;2022-11-22T02:55:34;2.27;;;1.50;;
30147;SDS011;16960;49.404;8.248;2022-11-22T02:58:01;1.60;;;1.40;;
30147;SDS011;16960;49.404;8.248;2022-11-22T03:00:31;1.83;;;1.73;;
30147;SDS011;16960;49.404;8.248;2022-11-22T03:02:58;1.73;;;1.47;;
30147;SDS011;16960;49.404;8.248;2022-11-22T03:05:25;1.93;;;1.70;;
30147;SDS011;16960;49.404;8.248;2022-11-22T03:07:52;2.60;;;1.70;;
30147;SDS011;16960;49.404;8.248;2022-11-22T03:10:19;2.17;;;1.97;;
30147;SDS011;16960;49.404;8.248;2022-11-22T03:12:46;2.10;;;1.60;;
30147;SDS011;16960;49.404;8.248;2022-11-22T03:15:13;1.33;;;1.23;;
30147;SDS011;16960;49.404;8.248;2022-11-22T03:17:41;1.60;;;1.50;;
30147;SDS011;16960;49.404;8.248;2022-11-22T03:20:08;1.37;;;1.23;;
30147;SDS011;16960;49.404;8.248;2022-11-22T03:22:35;1.83;;;1.50;;
30147;SDS011;16960;49.404;8.248;2022-11-22T03:25:02;2.20;;;2.00;;
30147;SDS011;16960;49.404;8.248;2022-11-22T03:27:30;2.00;;;1.23;;
30147;SDS011;16960;49.404;8.248;2022-11-22T03:29:57;5.23;;;1.57;;
30147;SDS011;16960;49.404;8.248;2022-11-22T03:32:24;1.70;;;1.40;;
30147;SDS011;16960;49.404;8.248;2022-11-22T03:34:52;1.90;;;1.67;;
30147;SDS011;16960;49.404;8.248;2022-11-22T03:37:19;1.30;;;1.20;;
30147;SDS011;16960;49.404;8.248;2022-11-22T03:39:46;1.93;;;1.33;;
30147;SDS011;16960;49.404;8.248;2022-11-22T03:42:12;1.70;;;1.60;;
30147;SDS011;16960;49.404;8.248;2022-11-22T03:44:39;2.97;;;1.47;;
30147;SDS011;16960;49.404;8.248;2022-11-22T03:47:06;1.67;;;1.57;;
30147;SDS011;16960;49.404;8.248;2022-11-22T03:49:33;1.87;;;1.40;;
30147;SDS011;16960;49.404;8.248;2022-11-22T03:52:01;1.40;;;1.30;;
30147;SDS011;16960;49.404;8.248;2022-11-22T03:54:29;1.70;;;1.60;;
30147;SDS011;16960;49.404;8.248;2022-11-22T03:56:56;1.83;;;1.63;;
30147;SDS011;16960;49.404;8.248;2022-11-22T03:59:23;2.03;;;1.67;;
30147;SDS011;16960;49.404;8.248;2022-11-22T04:01:50;2.57;;;1.53;;
30147;SDS011;16960;49.404;8.248;2022-11-22T04:04:16;1.77;;;1.60;;
30147;SDS011;16960;49.404;8.248;2022-11-22T04:06:43;2.43;;;1.27;;
30147;SDS011;16960;49.404;8.248;2022-11-22T04:09:12;3.37;;;1.90;;
30147;SDS011;16960;49.404;8.248;2022-11-22T04:11:38;2.70;;;1.50;;
30147;SDS011;16960;49.404;8.248;2022-11-22T04:14:05;1.93;;;1.40;;
30147;SDS011;16960;49.404;8.248;2022-11-22T04:16:51;2.20;;;1.53;;
30147;SDS011;16960;49.404;8.248;2022-11-22T04:19:18;1.33;;;1.23;;
30147;SDS011;16960;49.404;8.248;2022-11-22T04:21:45;1.53;;;1.40;;
30147;SDS011;16960;49.404;8.248;2022-11-22T04:24:12;2.50;;;1.57;;
30147;SDS011;16960;49.404;8.248;2022-11-22T04:26:57;2.30;;;1.60;;
30147;SDS011;16960;49.404;8.248;2022-11-22T04:29:24;1.50;;;1.40;;
30147;SDS011;16960;49.404;8.248;2022-11-22T04:31:51;1.57;;;1.40;;
30147;SDS011;16960;49.404;8.248;2022-11-22T04:34:35;1.90;;;1.73;;
30147;SDS011;16960;49.404;8.248;2022-11-22T04:37:02;1.70;;;1.60;;
30147;SDS011;16960;49.404;8.248;2022-11-22T04:39:31;1.70;;;1.13;;
30147;SDS011;16960;49.404;8.248;2022-11-22T04:41:58;3.40;;;1.80;;
30147;SDS011;16960;49.404;8.248;2022-11-22T04:44:43;1.67;;;1.30;;
30147;SDS011;16960;49.404;8.248;2022-11-22T04:47:11;1.83;;;1.17;;
30147;SDS011;16960;49.404;8.248;2022-11-22T04:50:01;1.40;;;1.20;;
30147;SDS011;16960;49.404;8.248;2022-11-22T04:52:51;1.73;;;1.30;;
30147;SDS011;16960;49.404;8.248;2022-11-22T04:55:19;2.07;;;1.83;;
30147;SDS011;16960;49.404;8.248;2022-11-22T04:57:46;1.60;;;1.50;;
30147;SDS011;16960;49.404;8.248;2022-11-22T05:00:13;1.80;;;1.20;;
30147;SDS011;16960;49.404;8.248;2022-11-22T05:02:41;1.73;;;1.10;;
30147;SDS011;16960;49.404;8.248;2022-11-22T05:05:08;1.70;;;1.20;;
30147;SDS011;16960;49.404;8.248;2022-11-22T05:07:35;1.37;;;1.07;;
30147;SDS011;16960;49.404;8.248;2022-11-22T05:10:02;1.37;;;1.00;;
30147;SDS011;16960;49.404;8.248;2022-11-22T05:12:31;1.50;;;1.40;;
30147;SDS011;16960;49.404;8.248;2022-11-22T05:14:58;1.70;;;1.40;;
30147;SDS011;16960;49.404;8.248;2022-11-22T05:17:25;1.30;;;1.10;;
30147;SDS011;16960;49.404;8.248;2022-11-22T05:19:51;2.20;;;1.10;;
30147;SDS011;16960;49.404;8.248;2022-11-22T05:22:18;1.93;;;1.20;;
30147;SDS011;16960;49.404;8.248;2022-11-22T05:25:06;3.43;;;1.87;;
30147;SDS011;16960;49.404;8.248;2022-11-22T05:27:33;2.00;;;1.50;;
30147;SDS011;16960;49.404;8.248;2022-11-22T05:30:00;2.47;;;1.20;;
30147;SDS011;16960;49.404;8.248;2022-11-22T05:32:31;1.63;;;1.33;;
30147;SDS011;16960;49.404;8.248;2022-11-22T05:34:59;1.50;;;1.20;;
30147;SDS011;16960;49.404;8.248;2022-11-22T05:37:26;1.73;;;1.07;;
30147;SDS011;16960;49.404;8.248;2022-11-22T05:39:53;1.23;;;1.13;;
30147;SDS011;16960;49.404;8.248;2022-11-22T05:42:20;1.30;;;1.20;;
30147;SDS011;16960;49.404;8.248;2022-11-22T05:44:48;1.57;;;1.33;;
30147;SDS011;16960;49.404;8.248;2022-11-22T05:47:15;1.33;;;1.17;;
30147;SDS011;16960;49.404;8.248;2022-11-22T05:49:42;2.57;;;1.37;;
30147;SDS011;16960;49.404;8.248;2022-11-22T05:52:10;1.63;;;1.17;;
30147;SDS011;16960;49.404;8.248;2022-11-22T05:54:37;1.60;;;1.20;;
30147;SDS011;16960;49.404;8.248;2022-11-22T05:57:04;1.90;;;1.10;;
30147;SDS011;16960;49.404;8.248;2022-11-22T05:59:31;4.57;;;1.30;;
30147;SDS011;16960;49.404;8.248;2022-11-22T06:01:59;1.80;;;1.10;;
30147;SDS011;16960;49.404;8.248;2022-11-22T06:04:26;1.40;;;1.13;;
30147;SDS011;16960;49.404;8.248;2022-11-22T06:06:53;1.10;;;1.00;;
30147;SDS011;16960;49.404;8.248;2022-11-22T06:09:20;2.17;;;1.40;;
30147;SDS011;16960;49.404;8.248;2022-11-22T06:11:48;1.20;;;1.00;;
30147;SDS011;16960;49.404;8.248;2022-11-22T06:14:14;1.37;;;1.07;;
30147;SDS011;16960;49.404;8.248;2022-11-22T06:16:42;1.67;;;1.10;;
30147;SDS011;16960;49.404;8.248;2022-11-22T06:19:10;1.40;;;1.13;;
30147;SDS011;16960;49.404;8.248;2022-11-22T06:21:38;1.30;;;0.90;;
30147;SDS011;16960;49.404;8.248;2022-11-22T06:24:05;3.07;;;0.90;;
30147;SDS011;16960;49.404;8.248;2022-11-22T06:26:34;3.90;;;2.03;;
30147;SDS011;16960;49.404;8.248;2022-11-22T06:29:01;2.10;;;1.23;;
30147;SDS011;16960;49.404;8.248;2022-11-22T06:31:28;3.70;;;1.73;;
30147;SDS011;16960;49.404;8.248;2022-11-22T06:33:56;1.77;;;1.17;;
30147;SDS011;16960;49.404;8.248;2022-11-22T06:36:26;2.20;;;1.43;;
30147;SDS011;16960;49.404;8.248;2022-11-22T06:38:54;1.73;;;1.33;;
30147;SDS011;16960;49.404;8.248;2022-11-22T06:41:21;1.50;;;1.30;;
30147;SDS011;16960;49.404;8.248;2022-11-22T06:43:50;1.70;;;1.40;;
30147;SDS011;16960;49.404;8.248;2022-11-22T06:46:19;6.27;;;2.00;;
30147;SDS011;16960;49.404;8.248;2022-11-22T06:48:48;3.00;;;1.67;;
30147;SDS011;16960;49.404;8.248;2022-11-22T06:51:16;2.03;;;1.30;;
30147;SDS011;16960;49.404;8.248;2022-11-22T06:53:45;3.57;;;1.33;;
30147;SDS011;16960;49.404;8.248;2022-11-22T06:56:13;2.23;;;1.30;;
30147;SDS011;16960;49.404;8.248;2022-11-22T06:58:42;1.63;;;1.23;;
30147;SDS011;16960;49.404;8.248;2022-11-22T07:01:10;1.70;;;1.30;;
30147;SDS011;16960;49.404;8.248;2022-11-22T07:03:39;4.13;;;2.10;;
30147;SDS011;16960;49.404;8.248;2022-11-22T07:06:07;3.60;;;2.20;;
30147;SDS011;16960;49.404;8.248;2022-11-22T07:08:36;2.80;;;2.50;;
30147;SDS011;16960;49.404;8.248;2022-11-22T07:11:05;7.53;;;4.50;;
30147;SDS011;16960;49.404;8.248;2022-11-22T07:13:34;6.13;;;4.60;;
30147;SDS011;16960;49.404;8.248;2022-11-22T07:16:03;7.87;;;5.47;;
30147;SDS011;16960;49.404;8.248;2022-11-22T07:18:31;9.27;;;6.73;;
30147;SDS011;16960;49.404;8.248;2022-11-22T07:20:59;9.70;;;6.67;;
30147;SDS011;16960;49.404;8.248;2022-11-22T07:23:27;8.77;;;6.40;;
30147;SDS011;16960;49.404;8.248;2022-11-22T07:25:55;7.40;;;5.83;;
30147;SDS011;16960;49.404;8.248;2022-11-22T07:28:23;8.10;;;6.47;;
30147;SDS011;16960;49.404;8.248;2022-11-22T07:30:50;9.17;;;6.43;;
30147;SDS011;16960;49.404;8.248;2022-11-22T07:33:18;7.30;;;5.20;;
30147;SDS011;16960;49.404;8.248;2022-11-22T07:35:45;6.93;;;5.57;;
30147;SDS011;16960;49.404;8.248;2022-11-22T07:38:12;7.20;;;5.70;;
30147;SDS011;16960;49.404;8.248;2022-11-22T07:40:39;7.73;;;5.67;;
30147;SDS011;16960;49.404;8.248;2022-11-22T07:43:06;11.30;;;6.10;;
30147;SDS011;16960;49.404;8.248;2022-11-22T07:45:34;6.73;;;5.37;;
30147;SDS011;16960;49.404;8.248;2022-11-22T07:48:01;7.67;;;6.03;;
30147;SDS011;16960;49.404;8.248;2022-11-22T07:50:28;9.80;;;6.27;;
30147;SDS011;16960;49.404;8.248;2022-11-22T07:52:55;8.37;;;4.97;;
30147;SDS011;16960;49.404;8.248;2022-11-22T07:55:23;8.90;;;5.67;;
30147;SDS011;16960;49.404;8.248;2022-11-22T07:57:51;6.83;;;4.83;;
30147;SDS011;16960;49.404;8.248;2022-11-22T08:00:18;7.97;;;4.50;;
30147;SDS011;16960;49.404;8.248;2022-11-22T08:02:47;6.40;;;5.20;;
30147;SDS011;16960;49.404;8.248;2022-11-22T08:05:15;7.20;;;5.20;;
30147;SDS011;16960;49.404;8.248;2022-11-22T08:07:44;6.53;;;5.20;;
30147;SDS011;16960;49.404;8.248;2022-11-22T08:10:12;9.27;;;4.90;;
30147;SDS011;16960;49.404;8.248;2022-11-22T08:12:39;6.80;;;5.70;;
30147;SDS011;16960;49.404;8.248;2022-11-22T08:15:07;6.00;;;4.60;;
30147;SDS011;16960;49.404;8.248;2022-11-22T08:17:35;5.90;;;4.03;;
30147;SDS011;16960;49.404;8.248;2022-11-22T08:20:04;7.47;;;4.37;;
30147;SDS011;16960;49.404;8.248;2022-11-22T08:22:34;6.77;;;4.17;;
30147;SDS011;16960;49.404;8.248;2022-11-22T08:25:01;5.70;;;3.73;;
30147;SDS011;16960;49.404;8.248;2022-11-22T08:27:28;5.53;;;3.70;;
30147;SDS011;16960;49.404;8.248;2022-11-22T08:29:55;6.83;;;4.57;;
30147;SDS011;16960;49.404;8.248;2022-11-22T08:32:22;4.63;;;3.87;;
30147;SDS011;16960;49.404;8.248;2022-11-22T08:34:49;8.27;;;3.87;;
30147;SDS011;16960;49.404;8.248;2022-11-22T08:37:17;7.43;;;4.10;;
30147;SDS011;16960;49.404;8.248;2022-11-22T08:39:44;7.40;;;3.60;;
30147;SDS011;16960;49.404;8.248;2022-11-22T08:42:11;6.27;;;3.40;;
30147;SDS011;16960;49.404;8.248;2022-11-22T08:44:38;6.57;;;3.37;;
30147;SDS011;16960;49.404;8.248;2022-11-22T08:47:05;5.70;;;2.67;;
30147;SDS011;16960;49.404;8.248;2022-11-22T08:49:32;5.47;;;2.70;;
30147;SDS011;16960;49.404;8.248;2022-11-22T08:51:59;4.67;;;2.67;;
30147;SDS011;16960;49.404;8.248;2022-11-22T08:54:27;6.33;;;2.90;;
30147;SDS011;16960;49.404;8.248;2022-11-22T08:56:54;5.87;;;2.63;;
30147;SDS011;16960;49.404;8.248;2022-11-22T08:59:21;3.60;;;2.40;;
30147;SDS011;16960;49.404;8.248;2022-11-22T09:01:48;4.70;;;2.63;;
30147;SDS011;16960;49.404;8.248;2022-11-22T09:04:15;4.23;;;2.50;;
30147;SDS011;16960;49.404;8.248;2022-11-22T09:06:42;3.73;;;2.33;;
30147;SDS011;16960;49.404;8.248;2022-11-22T09:09:09;3.60;;;2.10;;
30147;SDS011;16960;49.404;8.248;2022-11-22T09:11:37;5.53;;;2.63;;
30147;SDS011;16960;49.404;8.248;2022-11-22T09:14:04;6.73;;;2.00;;
30147;SDS011;16960;49.404;8.248;2022-11-22T09:16:31;4.87;;;2.57;;
30147;SDS011;16960;49.404;8.248;2022-11-22T09:18:58;3.63;;;2.37;;
30147;SDS011;16960;49.404;8.248;2022-11-22T09:21:25;3.63;;;2.13;;
30147;SDS011;16960;49.404;8.248;2022-11-22T09:23:52;5.17;;;2.83;;
30147;SDS011;16960;49.404;8.248;2022-11-22T09:26:19;3.53;;;2.70;;
30147;SDS011;16960;49.404;8.248;2022-11-22T09:28:49;3.80;;;2.03;;
30147;SDS011;16960;49.404;8.248;2022-11-22T09:31:18;6.30;;;2.50;;
30147;SDS011;16960;49.404;8.248;2022-11-22T09:33:46;4.63;;;2.50;;
30147;SDS011;16960;49.404;8.248;2022-11-22T09:36:14;3.37;;;2.30;;
30147;SDS011;16960;49.404;8.248;2022-11-22T09:38:43;3.93;;;2.33;;
30147;SDS011;16960;49.404;8.248;2022-11-22T09:41:14;4.43;;;2.63;;
30147;SDS011;16960;49.404;8.248;2022-11-22T09:44:07;6.83;;;2.57;;
30147;SDS011;16960;49.404;8.248;2022-11-22T09:46:43;4.30;;;2.70;;
30147;SDS011;16960;49.404;8.248;2022-11-22T09:52:06;5.13;;;1.93;;
30147;SDS011;16960;49.404;8.248;2022-11-22T09:54:39;4.03;;;2.10;;
30147;SDS011;16960;49.404;8.248;2022-11-22T09:57:11;3.70;;;2.00;;
30147;SDS011;16960;49.404;8.248;2022-11-22T09:59:46;3.87;;;2.10;;
30147;SDS011;16960;49.404;8.248;2022-11-22T10:02:18;3.70;;;2.00;;
30147;SDS011;16960;49.404;8.248;2022-11-22T10:04:50;3.90;;;2.10;;
30147;SDS011;16960;49.404;8.248;2022-11-22T10:07:22;4.30;;;2.27;;
30147;SDS011;16960;49.404;8.248;2022-11-22T10:09:54;3.20;;;2.00;;
30147;SDS011;16960;49.404;8.248;2022-11-22T10:12:30;3.93;;;1.80;;
30147;SDS011;16960;49.404;8.248;2022-11-22T10:15:10;4.30;;;2.20;;
30147;SDS011;16960;49.404;8.248;2022-11-22T10:17:46;3.43;;;2.20;;
30147;SDS011;16960;49.404;8.248;2022-11-22T10:20:18;4.07;;;1.60;;
30147;SDS011;16960;49.404;8.248;2022-11-22T10:22:46;3.53;;;1.67;;
30147;SDS011;16960;49.404;8.248;2022-11-22T10:25:16;4.23;;;2.00;;
30147;SDS011;16960;49.404;8.248;2022-11-22T10:27:44;3.43;;;2.03;;
30147;SDS011;16960;49.404;8.248;2022-11-22T10:30:17;3.17;;;1.60;;
30147;SDS011;16960;49.404;8.248;2022-11-22T10:32:56;5.47;;;2.57;;
30147;SDS011;16960;49.404;8.248;2022-11-22T10:35:44;2.70;;;1.80;;
30147;SDS011;16960;49.404;8.248;2022-11-22T10:38:31;7.03;;;1.90;;
30147;SDS011;16960;49.404;8.248;2022-11-22T10:41:24;3.23;;;1.60;;
30147;SDS011;16960;49.404;8.248;2022-11-22T10:44:02;6.27;;;1.30;;
30147;SDS011;16960;49.404;8.248;2022-11-22T10:46:45;3.83;;;1.83;;
30147;SDS011;16960;49.404;8.248;2022-11-22T10:49:23;3.63;;;1.67;;
30147;SDS011;16960;49.404;8.248;2022-11-22T10:52:01;2.83;;;1.73;;
30147;SDS011;16960;49.404;8.248;2022-11-22T10:54:38;5.90;;;1.77;;
30147;SDS011;16960;49.404;8.248;2022-11-22T10:57:11;2.43;;;1.47;;
30147;SDS011;16960;49.404;8.248;2022-11-22T10:59:50;3.37;;;1.87;;
30147;SDS011;16960;49.404;8.248;2022-11-22T11:02:33;2.90;;;2.23;;
30147;SDS011;16960;49.404;8.248;2022-11-22T11:05:09;3.27;;;1.53;;
30147;SDS011;16960;49.404;8.248;2022-11-22T11:07:42;3.60;;;1.57;;
30147;SDS011;16960;49.404;8.248;2022-11-22T11:10:14;3.40;;;1.80;;
30147;SDS011;16960;49.404;8.248;2022-11-22T11:12:44;2.73;;;1.40;;
30147;SDS011;16960;49.404;8.248;2022-11-22T11:15:16;2.53;;;1.73;;
30147;SDS011;16960;49.404;8.248;2022-11-22T11:17:48;3.37;;;1.57;;
30147;SDS011;16960;49.404;8.248;2022-11-22T11:20:20;3.80;;;1.70;;
30147;SDS011;16960;49.404;8.248;2022-11-22T11:22:51;4.53;;;2.70;;
30147;SDS011;16960;49.404;8.248;2022-11-22T11:25:28;2.93;;;1.83;;
30147;SDS011;16960;49.404;8.248;2022-11-22T11:27:57;3.00;;;1.50;;
30147;SDS011;16960;49.404;8.248;2022-11-22T11:30:27;2.90;;;1.43;;
30147;SDS011;16960;49.404;8.248;2022-11-22T11:33:03;2.60;;;1.47;;
30147;SDS011;16960;49.404;8.248;2022-11-22T11:35:43;2.47;;;1.57;;
30147;SDS011;16960;49.404;8.248;2022-11-22T11:38:24;4.40;;;1.40;;
30147;SDS011;16960;49.404;8.248;2022-11-22T11:40:55;3.13;;;1.47;;
30147;SDS011;16960;49.404;8.248;2022-11-22T11:43:22;1.50;;;1.20;;
30147;SDS011;16960;49.404;8.248;2022-11-22T11:45:50;3.57;;;1.27;;
30147;SDS011;16960;49.404;8.248;2022-11-22T11:48:26;2.43;;;1.63;;
30147;SDS011;16960;49.404;8.248;2022-11-22T11:51:09;2.03;;;1.33;;
30147;SDS011;16960;49.404;8.248;2022-11-22T11:53:40;5.53;;;1.80;;
30147;SDS011;16960;49.404;8.248;2022-11-22T11:56:36;1.70;;;1.10;;
30147;SDS011;16960;49.404;8.248;2022-11-22T11:59:15;2.27;;;1.60;;
30147;SDS011;16960;49.404;8.248;2022-11-22T12:01:56;1.60;;;1.30;;
30147;SDS011;16960;49.404;8.248;2022-11-22T12:04:29;2.40;;;2.00;;
30147;SDS011;16960;49.404;8.248;2022-11-22T12:07:00;2.27;;;1.40;;
30147;SDS011;16960;49.404;8.248;2022-11-22T12:09:30;2.60;;;1.27;;
30147;SDS011;16960;49.404;8.248;2022-11-22T12:12:11;2.07;;;1.40;;
30147;SDS011;16960;49.404;8.248;2022-11-22T12:14:46;2.30;;;1.43;;
30147;SDS011;16960;49.404;8.248;2022-11-22T12:17:24;2.63;;;1.53;;
30147;SDS011;16960;49.404;8.248;2022-11-22T12:19:59;3.37;;;1.50;;
30147;SDS011;16960;49.404;8.248;2022-11-22T12:22:32;2.40;;;1.37;;
30147;SDS011;16960;49.404;8.248;2022-11-22T12:25:13;1.90;;;1.03;;
30147;SDS011;16960;49.404;8.248;2022-11-22T12:27:46;2.07;;;1.53;;
30147;SDS011;16960;49.404;8.248;2022-11-22T12:30:13;2.20;;;1.00;;
30147;SDS011;16960;49.404;8.248;2022-11-22T12:32:41;2.17;;;1.50;;
30147;SDS011;16960;49.404;8.248;2022-11-22T12:35:17;3.77;;;1.67;;
30147;SDS011;16960;49.404;8.248;2022-11-22T12:37:48;1.80;;;1.50;;
30147;SDS011;16960;49.404;8.248;2022-11-22T12:40:20;2.77;;;1.40;;
30147;SDS011;16960;49.404;8.248;2022-11-22T12:42:50;4.63;;;1.60;;
30147;SDS011;16960;49.404;8.248;2022-11-22T12:45:21;5.00;;;2.20;;
30147;SDS011;16960;49.404;8.248;2022-11-22T12:47:52;3.07;;;1.57;;
30147;SDS011;16960;49.404;8.248;2022-11-22T12:50:25;2.00;;;1.10;;
30147;SDS011;16960;49.404;8.248;2022-11-22T12:52:57;3.00;;;1.37;;
30147;SDS011;16960;49.404;8.248;2022-11-22T12:55:29;3.10;;;1.73;;
30147;SDS011;16960;49.404;8.248;2022-11-22T12:58:05;2.83;;;1.60;;
30147;SDS011;16960;49.404;8.248;2022-11-22T13:00:42;2.33;;;1.53;;
30147;SDS011;16960;49.404;8.248;2022-11-22T13:03:20;2.73;;;1.63;;
30147;SDS011;16960;49.404;8.248;2022-11-22T13:05:55;3.27;;;1.53;;
30147;SDS011;16960;49.404;8.248;2022-11-22T13:08:24;1.73;;;1.37;;
30147;SDS011;16960;49.404;8.248;2022-11-22T13:10:57;1.30;;;1.00;;
30147;SDS011;16960;49.404;8.248;2022-11-22T13:13:31;2.67;;;1.20;;
30147;SDS011;16960;49.404;8.248;2022-11-22T13:16:02;3.50;;;1.70;;
30147;SDS011;16960;49.404;8.248;2022-11-22T13:18:35;2.50;;;1.30;;
30147;SDS011;16960;49.404;8.248;2022-11-22T13:21:07;3.03;;;1.30;;
30147;SDS011;16960;49.404;8.248;2022-11-22T13:23:47;2.23;;;1.33;;
30147;SDS011;16960;49.404;8.248;2022-11-22T13:26:33;3.40;;;1.43;;
30147;SDS011;16960;49.404;8.248;2022-11-22T13:29:08;5.50;;;1.20;;
30147;SDS011;16960;49.404;8.248;2022-11-22T13:31:58;3.13;;;1.53;;
30147;SDS011;16960;49.404;8.248;2022-11-22T13:34:27;2.83;;;1.43;;
30147;SDS011;16960;49.404;8.248;2022-11-22T13:36:58;2.30;;;1.30;;
30147;SDS011;16960;49.404;8.248;2022-11-22T13:39:30;2.20;;;1.47;;
30147;SDS011;16960;49.404;8.248;2022-11-22T13:42:01;1.57;;;1.30;;
30147;SDS011;16960;49.404;8.248;2022-11-22T13:44:34;1.60;;;0.97;;
30147;SDS011;16960;49.404;8.248;2022-11-22T13:47:03;2.37;;;1.33;;
30147;SDS011;16960;49.404;8.248;2022-11-22T13:49:45;2.70;;;1.53;;
30147;SDS011;16960;49.404;8.248;2022-11-22T13:55:24;4.23;;;1.23;;
30147;SDS011;16960;49.404;8.248;2022-11-22T13:57:54;1.93;;;1.00;;
30147;SDS011;16960;49.404;8.248;2022-11-22T14:00:37;1.70;;;1.30;;
30147;SDS011;16960;49.404;8.248;2022-11-22T14:05:59;2.90;;;1.20;;
30147;SDS011;16960;49.404;8.248;2022-11-22T14:08:40;1.20;;;1.10;;
30147;SDS011;16960;49.404;8.248;2022-11-22T14:14:00;6.43;;;1.40;;
30147;SDS011;16960;49.404;8.248;2022-11-22T14:19:22;1.30;;;1.20;;
30147;SDS011;16960;49.404;8.248;2022-11-22T14:22:06;2.47;;;1.10;;
30147;SDS011;16960;49.404;8.248;2022-11-22T14:24:47;4.07;;;1.57;;
30147;SDS011;16960;49.404;8.248;2022-11-22T14:27:29;2.93;;;1.23;;
30147;SDS011;16960;49.404;8.248;2022-11-22T14:30:12;1.80;;;1.23;;
30147;SDS011;16960;49.404;8.248;2022-11-22T14:32:49;2.10;;;0.97;;
30147;SDS011;16960;49.404;8.248;2022-11-22T14:35:24;3.17;;;1.30;;
30147;SDS011;16960;49.404;8.248;2022-11-22T14:44:07;1.60;;;1.00;;
30147;SDS011;16960;49.404;8.248;2022-11-22T14:46:39;1.13;;;0.93;;
30147;SDS011;16960;49.404;8.248;2022-11-22T14:49:13;1.70;;;1.20;;
30147;SDS011;16960;49.404;8.248;2022-11-22T14:51:44;1.43;;;1.33;;
30147;SDS011;16960;49.404;8.248;2022-11-22T14:54:18;1.70;;;1.10;;
30147;SDS011;16960;49.404;8.248;2022-11-22T14:56:49;2.30;;;1.10;;
30147;SDS011;16960;49.404;8.248;2022-11-22T14:59:27;2.20;;;1.23;;
30147;SDS011;16960;49.404;8.248;2022-11-22T15:02:23;2.20;;;1.23;;
30147;SDS011;16960;49.404;8.248;2022-11-22T15:05:17;1.77;;;1.20;;
30147;SDS011;16960;49.404;8.248;2022-11-22T15:08:01;3.70;;;1.20;;
30147;SDS011;16960;49.404;8.248;2022-11-22T15:10:59;1.43;;;1.10;;
30147;SDS011;16960;49.404;8.248;2022-11-22T15:14:13;3.27;;;1.60;;
30147;SDS011;16960;49.404;8.248;2022-11-22T15:16:58;2.17;;;1.30;;
30147;SDS011;16960;49.404;8.248;2022-11-22T15:19:35;3.10;;;1.13;;
30147;SDS011;16960;49.404;8.248;2022-11-22T15:22:04;1.60;;;1.00;;
30147;SDS011;16960;49.404;8.248;2022-11-22T15:24:32;2.10;;;1.30;;
30147;SDS011;16960;49.404;8.248;2022-11-22T15:26:59;2.03;;;1.37;;
30147;SDS011;16960;49.404;8.248;2022-11-22T15:29:44;2.70;;;1.00;;
30147;SDS011;16960;49.404;8.248;2022-11-22T15:32:12;2.37;;;1.40;;
30147;SDS011;16960;49.404;8.248;2022-11-22T15:34:42;2.27;;;1.73;;